createdAt,value
2022-12-14T00:01:21.203Z,68.65
2022-12-14T00:03:48.467Z,68.67
2022-12-14T00:06:22.856Z,68.39
2022-12-14T00:08:50.404Z,67.83
2022-12-14T00:11:20.072Z,68.80
2022-12-14T00:13:48.811Z,71.14
2022-12-14T00:16:17.002Z,70.50
2022-12-14T00:18:45.544Z,70.15
2022-12-14T00:21:13.410Z,69.39
2022-12-14T00:23:41.356Z,70.29
2022-12-14T00:26:13.040Z,69.32
2022-12-14T00:28:39.878Z,69.18
2022-12-14T00:31:06.813Z,69.29
2022-12-14T00:33:34.541Z,69.61
2022-12-14T00:36:01.853Z,69.23
2022-12-14T00:38:29.081Z,70.06
2022-12-14T00:41:00.121Z,69.28
2022-12-14T00:43:31.251Z,67.82
2022-12-14T00:46:00.289Z,69.44
2022-12-14T00:48:34.237Z,69.31
2022-12-14T00:51:09.101Z,68.73
2022-12-14T00:53:41.700Z,69.58
2022-12-14T00:56:19.687Z,70.22
2022-12-14T00:58:55.188Z,68.61
2022-12-14T01:01:30.930Z,68.55
2022-12-14T01:04:19.229Z,69.38
2022-12-14T01:06:51.319Z,67.97
2022-12-14T01:09:20.364Z,67.87
2022-12-14T01:11:47.561Z,68.09
2022-12-14T01:14:16.161Z,70.29
2022-12-14T01:16:45.483Z,67.14
2022-12-14T01:19:13.966Z,68.75
2022-12-14T01:21:43.556Z,69.18
2022-12-14T01:24:20.578Z,68.15
2022-12-14T01:26:50.005Z,69.57
2022-12-14T01:29:18.211Z,69.77
2022-12-14T01:31:48.763Z,68.65
2022-12-14T01:34:17.790Z,67.11
2022-12-14T01:36:46.803Z,69.29
2022-12-14T01:39:15.291Z,69.54
2022-12-14T01:41:52.470Z,70.30
2022-12-14T01:44:24.943Z,67.99
2022-12-14T01:47:12.788Z,66.60
2022-12-14T01:49:40.777Z,67.99
2022-12-14T01:52:11.110Z,69.14
2022-12-14T01:54:40.347Z,68.77
2022-12-14T01:57:07.079Z,67.27
2022-12-14T01:59:36.442Z,68.59
2022-12-14T02:02:05.844Z,69.75
2022-12-14T02:04:37.031Z,68.86
2022-12-14T02:07:03.927Z,68.29
2022-12-14T02:09:33.758Z,67.46
2022-12-14T02:12:00.378Z,68.62
2022-12-14T02:14:27.303Z,68.48
2022-12-14T02:16:55.424Z,68.13
2022-12-14T02:19:22.311Z,67.64
2022-12-14T02:21:48.968Z,66.95
2022-12-14T02:24:25.902Z,67.93
2022-12-14T02:27:12.235Z,66.72
2022-12-14T02:29:41.928Z,67.21
2022-12-14T02:32:27.900Z,66.56
2022-12-14T02:35:12.934Z,66.99
2022-12-14T02:37:59.563Z,66.87
2022-12-14T02:40:36.602Z,66.90
2022-12-14T02:43:03.347Z,66.83
2022-12-14T02:45:42.548Z,66.93
2022-12-14T02:48:14.857Z,66.23
2022-12-14T02:50:46.790Z,66.43
2022-12-14T02:53:26.596Z,67.25
2022-12-14T02:55:54.154Z,67.26
2022-12-14T02:58:26.166Z,66.90
2022-12-14T03:00:54.276Z,67.29
2022-12-14T03:03:21.098Z,66.51
2022-12-14T03:06:02.051Z,66.92
2022-12-14T03:08:31.732Z,68.34
2022-12-14T03:11:01.949Z,66.87
2022-12-14T03:13:41.161Z,65.31
2022-12-14T03:16:22.998Z,66.25
2022-12-14T03:18:49.735Z,66.69
2022-12-14T03:21:20.747Z,66.87
2022-12-14T03:23:49.798Z,66.94
2022-12-14T03:26:22.632Z,66.77
2022-12-14T03:28:55.344Z,65.67
2022-12-14T03:31:34.874Z,66.23
2022-12-14T03:34:03.803Z,66.24
2022-12-14T03:36:33.384Z,66.98
2022-12-14T03:39:02.484Z,65.29
2022-12-14T03:41:37.561Z,65.61
2022-12-14T03:44:13.476Z,65.31
2022-12-14T03:46:52.981Z,65.80
2022-12-14T03:49:36.438Z,66.34
2022-12-14T03:52:07.971Z,65.56
2022-12-14T03:54:57.964Z,66.06
2022-12-14T03:57:38.716Z,65.80
2022-12-14T04:00:10.877Z,66.97
2022-12-14T04:02:40.964Z,66.78
2022-12-14T04:05:12.646Z,65.11
2022-12-14T04:07:51.977Z,68.36
2022-12-14T04:10:47.579Z,68.91
2022-12-14T04:13:38.615Z,69.06
2022-12-14T04:16:27.936Z,66.80
2022-12-14T04:19:02.542Z,67.79
2022-12-14T04:21:45.079Z,67.71
2022-12-14T04:24:53.093Z,68.20
2022-12-14T04:27:43.043Z,69.21
2022-12-14T04:30:10.735Z,70.74
2022-12-14T04:32:37.555Z,69.28
2022-12-14T04:35:12.569Z,67.99
2022-12-14T04:37:40.661Z,67.65
2022-12-14T04:40:10.838Z,69.16
2022-12-14T04:42:44.525Z,67.64
2022-12-14T04:45:20.042Z,68.93
2022-12-14T04:47:51.304Z,67.26
2022-12-14T04:50:26.984Z,67.87
2022-12-14T04:53:01.575Z,67.70
2022-12-14T04:55:36.212Z,68.61
2022-12-14T04:58:07.722Z,68.42
2022-12-14T05:00:35.873Z,68.15
2022-12-14T05:03:21.934Z,68.26
2022-12-14T05:05:56.846Z,68.87
2022-12-14T05:08:30.034Z,69.21
2022-12-14T05:11:30.248Z,68.16
2022-12-14T05:13:51.123Z,67.61
2022-12-14T05:16:19.224Z,68.74
2022-12-14T05:18:46.510Z,67.73
2022-12-14T05:21:32.119Z,66.87
2022-12-14T05:24:00.300Z,66.97
2022-12-14T05:26:27.468Z,67.74
2022-12-14T05:28:54.308Z,67.38
2022-12-14T05:31:21.532Z,67.40
2022-12-14T05:33:48.265Z,66.18
2022-12-14T05:36:15.237Z,66.63
2022-12-14T05:38:42.292Z,67.22
2022-12-14T05:41:09.039Z,67.43
2022-12-14T05:43:36.147Z,67.61
2022-12-14T05:46:04.248Z,70.34
2022-12-14T05:48:31.635Z,70.33
2022-12-14T05:51:09.054Z,68.65
2022-12-14T05:53:36.704Z,68.49
2022-12-14T05:56:04.092Z,68.63
2022-12-14T05:58:33.133Z,68.96
2022-12-14T06:01:19.058Z,69.09
2022-12-14T06:03:47.706Z,70.35
2022-12-14T06:06:14.968Z,69.19
2022-12-14T06:08:43.055Z,69.76
2022-12-14T06:11:11.014Z,70.48
2022-12-14T06:13:38.908Z,71.23
2022-12-14T06:16:10.119Z,71.07
2022-12-14T06:18:37.001Z,72.19
2022-12-14T06:21:03.853Z,70.96
2022-12-14T06:23:30.968Z,71.38
2022-12-14T06:25:57.933Z,70.97
2022-12-14T06:28:24.693Z,70.70
2022-12-14T06:30:51.474Z,71.03
2022-12-14T06:33:18.373Z,71.80
2022-12-14T06:35:45.877Z,71.57
2022-12-14T06:38:13.063Z,71.83
2022-12-14T06:43:39.343Z,71.34
2022-12-14T06:46:15.108Z,70.90
2022-12-14T06:52:06.286Z,70.33
2022-12-14T06:54:37.436Z,70.13
2022-12-14T06:57:05.307Z,71.25
2022-12-14T06:59:33.036Z,71.97
2022-12-14T07:02:03.041Z,71.24
2022-12-14T07:04:30.127Z,69.48
2022-12-14T07:06:56.916Z,70.00
2022-12-14T07:09:23.652Z,70.61
2022-12-14T07:11:51.768Z,72.37
2022-12-14T07:14:19.354Z,70.26
2022-12-14T07:33:03.706Z,68.83
2022-12-14T07:35:30.735Z,70.44
2022-12-14T07:37:58.028Z,69.85
2022-12-14T07:40:25.472Z,71.30
2022-12-14T07:42:52.282Z,70.90
2022-12-14T07:45:19.052Z,70.60
2022-12-14T07:47:45.853Z,70.23
2022-12-14T07:50:12.724Z,70.83
2022-12-14T07:52:40.567Z,71.37
2022-12-14T07:55:07.937Z,71.20
2022-12-14T07:57:34.757Z,71.98
2022-12-14T08:00:01.675Z,71.71
2022-12-14T08:02:28.747Z,69.84
2022-12-14T08:04:55.650Z,70.41
2022-12-14T08:07:22.641Z,69.79
2022-12-14T08:09:49.645Z,71.21
2022-12-14T08:12:18.553Z,72.57
2022-12-14T08:14:45.451Z,72.65
2022-12-14T08:17:13.022Z,72.72
2022-12-14T08:35:40.473Z,74.29
2022-12-14T08:38:08.754Z,73.90
2022-12-14T08:40:36.110Z,74.73
2022-12-14T08:43:02.904Z,74.96
2022-12-14T08:45:30.042Z,73.35
2022-12-14T08:48:00.113Z,74.29
2022-12-14T08:50:27.532Z,74.29
2022-12-14T08:52:54.283Z,72.54
2022-12-14T08:55:27.576Z,74.19
2022-12-14T08:57:56.389Z,73.38
2022-12-14T09:00:23.073Z,73.64
2022-12-14T09:02:51.322Z,74.17
2022-12-14T09:05:18.202Z,74.09
2022-12-14T09:07:45.290Z,73.96
2022-12-14T09:10:12.292Z,74.24
2022-12-14T09:12:39.894Z,73.92
2022-12-14T09:15:09.171Z,73.37
2022-12-14T09:17:35.979Z,73.15
2022-12-14T09:20:05.733Z,72.23
2022-12-14T09:22:32.480Z,73.36
2022-12-14T09:25:02.442Z,73.13
2022-12-14T09:27:29.296Z,73.84
2022-12-14T09:29:56.140Z,74.08
2022-12-14T09:32:25.120Z,73.40
2022-12-14T09:34:54.012Z,74.15
2022-12-14T09:37:20.940Z,73.69
2022-12-14T09:39:47.668Z,73.07
2022-12-14T09:42:35.715Z,72.96
2022-12-14T09:45:20.358Z,73.84
2022-12-14T09:47:54.613Z,74.49
2022-12-14T09:50:24.953Z,75.04
2022-12-14T09:52:56.980Z,74.36
2022-12-14T09:55:23.782Z,72.46
2022-12-14T09:58:03.035Z,72.50
2022-12-14T10:00:40.714Z,72.41
2022-12-14T10:03:16.802Z,72.46
2022-12-14T10:05:52.958Z,72.96
2022-12-14T10:08:36.544Z,73.54
2022-12-14T10:11:22.395Z,72.73
2022-12-14T10:14:13.591Z,73.61
2022-12-14T10:16:59.168Z,74.30
2022-12-14T10:19:36.806Z,73.59
2022-12-14T10:22:12.503Z,73.42
2022-12-14T10:24:44.045Z,74.66
2022-12-14T10:27:17.694Z,74.05
2022-12-14T10:29:50.634Z,73.12
2022-12-14T10:32:22.712Z,73.69
2022-12-14T10:34:50.591Z,73.07
2022-12-14T10:37:20.044Z,72.77
2022-12-14T10:39:51.820Z,71.81
2022-12-14T10:42:33.516Z,73.53
2022-12-14T10:48:06.199Z,72.48
2022-12-14T10:50:53.861Z,72.68
2022-12-14T10:53:27.412Z,71.43
2022-12-14T10:55:57.041Z,71.69
2022-12-14T10:58:23.739Z,72.06
2022-12-14T11:00:54.941Z,70.23
2022-12-14T11:03:22.124Z,70.16
2022-12-14T11:05:52.280Z,71.61
2022-12-14T11:08:37.755Z,70.07
2022-12-14T11:11:11.556Z,70.48
2022-12-14T11:13:47.191Z,69.34
2022-12-14T11:16:36.336Z,68.28
2022-12-14T11:19:04.852Z,68.79
2022-12-14T11:21:33.061Z,67.35
2022-12-14T11:23:59.941Z,67.54
2022-12-14T11:26:36.848Z,67.96
2022-12-14T11:29:06.193Z,69.39
2022-12-14T11:31:40.621Z,66.75
2022-12-14T11:34:22.146Z,65.80
2022-12-14T11:36:51.181Z,67.97
2022-12-14T11:39:22.513Z,68.08
2022-12-14T11:41:58.212Z,68.32
2022-12-14T11:44:26.545Z,66.94
2022-12-14T11:46:59.501Z,67.08
2022-12-14T11:49:38.709Z,67.00
2022-12-14T11:52:05.396Z,67.63
2022-12-14T11:54:38.231Z,68.54
2022-12-14T11:57:12.815Z,67.09
2022-12-14T11:59:43.516Z,66.54
2022-12-14T12:02:24.915Z,66.21
2022-12-14T12:04:57.714Z,66.64
2022-12-14T12:07:29.333Z,66.74
2022-12-14T12:10:00.744Z,67.85
2022-12-14T12:12:27.444Z,67.31
2022-12-14T12:15:01.099Z,68.12
2022-12-14T12:17:40.289Z,68.79
2022-12-14T12:20:20.625Z,69.53
2022-12-14T12:22:49.445Z,69.18
2022-12-14T12:25:29.726Z,69.27
2022-12-14T12:28:15.548Z,69.44
2022-12-14T12:30:47.428Z,68.91
2022-12-14T12:33:34.422Z,68.03
2022-12-14T12:36:06.125Z,69.10
2022-12-14T12:38:40.129Z,68.55
2022-12-14T12:41:15.749Z,68.14
2022-12-14T12:43:50.318Z,68.62
2022-12-14T12:46:20.425Z,67.74
2022-12-14T12:48:49.895Z,67.66
2022-12-14T12:51:25.087Z,69.17
2022-12-14T12:54:14.796Z,66.57
2022-12-14T12:56:44.669Z,67.38
2022-12-14T12:59:20.003Z,68.04
2022-12-14T13:01:51.201Z,66.97
2022-12-14T13:04:28.060Z,68.93
2022-12-14T13:07:05.624Z,68.77
2022-12-14T13:09:59.303Z,67.62
2022-12-14T13:12:35.671Z,69.14
2022-12-14T13:15:04.234Z,67.17
2022-12-14T13:17:37.561Z,67.82
2022-12-14T13:20:06.471Z,70.38
2022-12-14T13:22:34.631Z,69.31
2022-12-14T13:25:08.534Z,68.03
2022-12-14T13:27:38.327Z,68.09
2022-12-14T13:30:07.190Z,68.05
2022-12-14T13:32:37.578Z,68.38
2022-12-14T13:35:25.532Z,68.95
2022-12-14T13:38:03.760Z,67.93
2022-12-14T13:40:51.252Z,67.68
2022-12-14T13:43:31.303Z,69.43
2022-12-14T13:46:04.905Z,69.03
2022-12-14T13:48:36.427Z,70.06
2022-12-14T13:51:05.455Z,69.54
2022-12-14T13:53:32.874Z,70.04
2022-12-14T13:56:00.535Z,69.03
2022-12-14T13:58:39.713Z,69.48
2022-12-14T14:01:08.300Z,69.98
2022-12-14T14:03:37.327Z,68.32
2022-12-14T14:06:13.586Z,69.36
2022-12-14T14:08:42.351Z,71.31
2022-12-14T14:11:36.331Z,71.44
2022-12-14T14:14:23.273Z,72.62
2022-12-14T14:17:03.647Z,73.53
2022-12-14T14:19:37.795Z,71.96
2022-12-14T14:22:25.263Z,73.33
2022-12-14T14:24:57.415Z,74.11
2022-12-14T14:27:28.959Z,74.29
2022-12-14T14:29:56.323Z,73.18
2022-12-14T14:32:40.212Z,72.64
2022-12-14T14:35:25.670Z,70.94
2022-12-14T14:37:56.560Z,71.15
2022-12-14T14:40:51.422Z,70.54
2022-12-14T14:43:32.474Z,72.34
2022-12-14T14:46:02.112Z,69.21
2022-12-14T14:48:41.684Z,69.62
2022-12-14T14:51:15.160Z,69.45
2022-12-14T14:53:42.965Z,70.88
2022-12-14T14:56:28.263Z,70.80
2022-12-14T14:59:14.885Z,70.02
2022-12-14T15:01:50.883Z,68.93
2022-12-14T15:04:24.701Z,69.21
2022-12-14T15:06:54.433Z,68.89
2022-12-14T15:09:33.128Z,68.91
2022-12-14T15:12:07.773Z,69.39
2022-12-14T15:14:43.225Z,68.76
2022-12-14T15:17:22.252Z,68.69
2022-12-14T15:19:51.952Z,70.54
2022-12-14T15:22:26.181Z,67.14
2022-12-14T15:24:54.502Z,67.03
2022-12-14T15:27:29.324Z,67.81
2022-12-14T15:29:59.819Z,68.53
2022-12-14T15:32:26.619Z,67.61
2022-12-14T15:34:53.283Z,67.75
2022-12-14T15:37:38.739Z,66.83
2022-12-14T15:40:07.552Z,66.48
2022-12-14T15:42:34.453Z,67.48
2022-12-14T15:45:05.393Z,67.73
2022-12-14T15:47:32.097Z,69.82
2022-12-14T15:50:15.656Z,70.63
2022-12-14T15:52:43.152Z,70.29
2022-12-14T15:55:28.388Z,69.15
2022-12-14T15:57:55.289Z,70.53
2022-12-14T16:00:22.342Z,70.74
2022-12-14T16:02:49.164Z,70.43
2022-12-14T16:05:18.932Z,69.75
2022-12-14T16:07:48.240Z,70.10
2022-12-14T16:10:33.144Z,70.96
2022-12-14T16:13:04.171Z,71.09
2022-12-14T16:15:31.011Z,71.16
2022-12-14T16:18:04.630Z,70.24
2022-12-14T16:20:32.845Z,69.24
2022-12-14T16:22:59.652Z,68.72
2022-12-14T16:25:28.443Z,70.57
2022-12-14T16:27:55.200Z,70.31
2022-12-14T16:30:25.562Z,69.02
2022-12-14T16:32:54.302Z,69.49
2022-12-14T16:35:25.695Z,69.84
2022-12-14T16:37:57.898Z,69.65
2022-12-14T16:40:27.438Z,68.45
2022-12-14T16:42:54.096Z,68.50
2022-12-14T16:45:36.329Z,69.72
2022-12-14T16:48:07.856Z,70.37
2022-12-14T16:53:22.165Z,69.56
2022-12-14T16:56:14.436Z,69.12
2022-12-14T16:58:43.266Z,68.00
2022-12-14T17:01:10.376Z,68.46
2022-12-14T17:03:38.528Z,68.37
2022-12-14T17:06:06.748Z,69.32
2022-12-14T17:08:34.096Z,70.78
2022-12-14T17:11:04.249Z,71.80
2022-12-14T17:13:31.345Z,71.39
2022-12-14T17:16:09.162Z,72.26
2022-12-14T17:18:40.675Z,72.59
2022-12-14T17:21:08.816Z,72.33
2022-12-14T17:23:37.727Z,71.65
2022-12-14T17:26:04.488Z,71.79
2022-12-14T17:28:35.739Z,72.12
2022-12-14T17:31:02.906Z,70.97
2022-12-14T17:33:30.501Z,72.32
2022-12-14T17:35:57.585Z,71.94
2022-12-14T17:38:24.563Z,73.33
2022-12-14T17:40:51.899Z,72.88
2022-12-14T17:43:20.176Z,70.78
2022-12-14T17:45:47.195Z,72.18
2022-12-14T17:48:15.047Z,71.06
2022-12-14T17:50:43.193Z,72.59
2022-12-14T17:53:13.575Z,72.46
2022-12-14T17:55:40.777Z,73.43
2022-12-14T17:58:07.552Z,73.01
2022-12-14T18:00:53.122Z,73.46
2022-12-14T18:03:21.144Z,72.56
2022-12-14T18:05:52.418Z,73.68
2022-12-14T18:08:19.899Z,74.04
2022-12-14T18:10:49.752Z,73.18
2022-12-14T18:13:16.432Z,74.07
2022-12-14T18:15:49.682Z,73.59
2022-12-14T18:18:18.078Z,73.72
2022-12-14T18:20:49.534Z,72.99
2022-12-14T18:23:16.949Z,73.12
2022-12-14T18:25:48.054Z,72.82
2022-12-14T18:28:14.946Z,72.46
2022-12-14T18:30:49.275Z,72.16
2022-12-14T18:33:21.606Z,73.21
2022-12-14T18:35:49.384Z,72.31
2022-12-14T18:38:16.217Z,72.93
2022-12-14T18:40:49.502Z,73.28
2022-12-14T18:43:26.619Z,72.82
2022-12-14T18:45:54.990Z,72.23
2022-12-14T18:48:22.521Z,71.84
2022-12-14T18:50:50.192Z,69.78
2022-12-14T18:53:18.221Z,72.35
2022-12-14T18:55:47.850Z,72.40
2022-12-14T18:58:19.769Z,71.33
2022-12-14T19:00:46.865Z,72.05
2022-12-14T19:03:16.202Z,73.49
2022-12-14T19:05:43.778Z,71.83
2022-12-14T19:08:11.042Z,73.26
2022-12-14T19:10:40.210Z,73.29
2022-12-14T19:13:07.547Z,71.59
2022-12-14T19:15:35.200Z,71.73
2022-12-14T19:18:01.865Z,73.98
2022-12-14T19:20:29.372Z,70.28
2022-12-14T19:22:56.550Z,69.92
2022-12-14T19:25:24.027Z,70.47
2022-12-14T19:30:38.996Z,72.15
2022-12-14T19:33:05.777Z,69.80
2022-12-14T19:35:32.877Z,69.02
2022-12-14T19:37:59.549Z,69.49
2022-12-14T19:40:27.206Z,69.43
2022-12-14T19:42:53.956Z,69.76
2022-12-14T19:45:20.797Z,69.16
2022-12-14T19:47:47.648Z,68.99
2022-12-14T19:50:16.070Z,71.87
2022-12-14T19:52:43.347Z,69.88
2022-12-14T19:55:10.734Z,70.12
2022-12-14T19:57:40.186Z,70.12
2022-12-14T20:00:08.377Z,69.55
2022-12-14T20:02:35.373Z,70.16
2022-12-14T20:05:02.207Z,70.66
2022-12-14T20:07:28.981Z,71.04
2022-12-14T20:09:55.738Z,72.75
2022-12-14T20:12:22.427Z,72.81
2022-12-14T20:14:49.457Z,73.72
2022-12-14T20:17:16.675Z,73.46
2022-12-14T20:19:43.473Z,71.45
2022-12-14T20:22:10.284Z,71.83
2022-12-14T20:24:37.257Z,71.04
2022-12-14T20:27:04.655Z,70.55
2022-12-14T20:29:31.299Z,71.42
2022-12-14T20:31:58.378Z,68.59
2022-12-14T20:34:25.247Z,69.43
2022-12-14T20:36:51.979Z,68.42
2022-12-14T20:39:18.783Z,67.65
2022-12-14T20:41:45.596Z,67.41
2022-12-14T20:44:14.024Z,66.80
2022-12-14T20:46:47.642Z,66.59
2022-12-14T20:49:16.326Z,66.31
2022-12-14T20:51:43.837Z,66.02
2022-12-14T20:54:11.850Z,66.14
2022-12-14T20:56:38.666Z,65.82
2022-12-14T20:59:05.544Z,66.04
2022-12-14T21:01:32.456Z,66.25
2022-12-14T21:04:02.571Z,65.74
2022-12-14T21:06:33.233Z,65.83
2022-12-14T21:09:06.508Z,66.01
2022-12-14T21:11:55.711Z,65.42
2022-12-14T21:14:25.874Z,65.04
2022-12-14T21:16:52.769Z,66.73
2022-12-14T21:19:30.564Z,66.87
2022-12-14T21:21:57.276Z,71.29
2022-12-14T21:24:53.188Z,71.93
2022-12-14T21:27:22.225Z,71.46
2022-12-14T21:29:49.057Z,70.65
2022-12-14T21:32:16.059Z,72.83
2022-12-14T21:34:43.370Z,72.84
2022-12-14T21:37:10.145Z,71.78
2022-12-14T21:39:37.181Z,71.93
2022-12-14T21:42:13.366Z,73.08
2022-12-14T21:44:43.048Z,74.02
2022-12-14T21:47:16.687Z,75.43
2022-12-14T21:49:45.276Z,72.96
2022-12-14T21:52:14.296Z,74.55
2022-12-14T21:54:41.119Z,73.93
2022-12-14T21:57:26.340Z,74.90
2022-12-14T21:59:53.038Z,76.49
2022-12-14T22:02:22.224Z,78.00
2022-12-14T22:04:49.566Z,76.21
2022-12-14T22:07:17.108Z,76.86
2022-12-14T22:09:44.218Z,77.07
2022-12-14T22:12:17.335Z,78.60
2022-12-14T22:14:44.045Z,78.41
2022-12-14T22:17:11.986Z,78.23
2022-12-14T22:19:38.677Z,77.37
2022-12-14T22:22:05.630Z,75.50
2022-12-14T22:24:32.417Z,74.23
2022-12-14T22:26:59.684Z,73.71
2022-12-14T22:29:26.371Z,73.44
2022-12-14T22:31:53.087Z,74.35
2022-12-14T22:34:23.676Z,73.49
2022-12-14T22:36:52.788Z,73.34
2022-12-14T22:39:19.567Z,75.42
2022-12-14T22:41:47.090Z,74.08
2022-12-14T22:44:14.048Z,75.33
2022-12-14T22:46:41.026Z,75.03
2022-12-14T22:49:08.787Z,76.30
2022-12-14T22:51:35.675Z,76.43
2022-12-14T22:54:03.399Z,74.10
2022-12-14T22:56:39.406Z,75.77
2022-12-14T22:59:12.137Z,75.54
2022-12-14T23:01:39.816Z,73.79
2022-12-14T23:04:07.669Z,72.77
2022-12-14T23:06:34.455Z,75.46
2022-12-14T23:09:19.828Z,75.53
2022-12-14T23:12:08.873Z,76.15
2022-12-14T23:14:57.618Z,75.97
2022-12-14T23:17:43.488Z,76.13
2022-12-14T23:20:29.410Z,74.86
2022-12-14T23:23:14.661Z,74.30
2022-12-14T23:26:00.139Z,74.89
2022-12-14T23:28:49.801Z,75.12
2022-12-14T23:31:37.039Z,77.46
2022-12-14T23:34:22.277Z,74.67
2022-12-14T23:37:12.689Z,75.39
2022-12-14T23:40:00.665Z,77.38
2022-12-14T23:42:45.696Z,75.44
2022-12-14T23:45:30.829Z,78.52
2022-12-14T23:48:15.977Z,78.95
2022-12-14T23:51:01.088Z,79.13
2022-12-14T23:53:50.097Z,76.28
2022-12-14T23:56:36.280Z,76.27
2022-12-14T23:59:24.908Z,76.71
